Terminal Aerodrome Forecast
Issued by NWS

Home | Current Version | Previous Version | Graphics & Text | Print | Product List | Glossary On
Versions: 1 2 3 4 5 6 7 8 9 10 11 12 13 14 15 16 17 18
000
FTUS43 KDLH 232300
TAFBRD
TAF
KBRD 232336Z 2400/2424 13009KT 5SM -RA SCT015 OVC025
      TEMPO 2400/2403 2SM -RAPL BR SCT007 OVC019
     FM240300 13008KT 4SM -RA BR OVC015
      TEMPO 2403/2406 6SM -RA SCT015 OVC040
     FM241500 13009KT 3SM -RA OVC007
     FM242200 VRB04KT 6SM -DZ BR OVC010=

USA.gov is the U.S. government's official web portal to all federal, state and local government web resources and services.